sensor_id;sensor_type;location;lat;lon;timestamp;pressure;altitude;pressure_sealevel;temperature;humidity
74466;BME280;62916;50.044;15.938;2023-05-15T00:00:19;98508.70;;;21.96;49.77
74466;BME280;62916;50.044;15.938;2023-05-15T00:02:51;98500.20;;;21.95;49.69
74466;BME280;62916;50.044;15.938;2023-05-15T00:05:22;98500.27;;;21.95;49.81
74466;BME280;62916;50.044;15.938;2023-05-15T00:07:53;98498.08;;;21.94;49.75
74466;BME280;62916;50.044;15.938;2023-05-15T00:10:24;98497.28;;;21.94;49.85
74466;BME280;62916;50.044;15.938;2023-05-15T00:12:55;98493.34;;;21.95;49.70
74466;BME280;62916;50.044;15.938;2023-05-15T00:15:26;98487.15;;;21.93;49.67
74466;BME280;62916;50.044;15.938;2023-05-15T00:17:57;98482.55;;;21.93;49.71
74466;BME280;62916;50.044;15.938;2023-05-15T00:20:28;98477.83;;;21.92;49.75
74466;BME280;62916;50.044;15.938;2023-05-15T00:22:59;98475.04;;;21.91;49.82
74466;BME280;62916;50.044;15.938;2023-05-15T00:25:29;98473.73;;;21.91;49.86
74466;BME280;62916;50.044;15.938;2023-05-15T00:28:00;98468.73;;;21.91;49.87
74466;BME280;62916;50.044;15.938;2023-05-15T00:30:31;98466.52;;;21.90;50.02
74466;BME280;62916;50.044;15.938;2023-05-15T00:33:02;98459.79;;;21.89;49.80
74466;BME280;62916;50.044;15.938;2023-05-15T00:35:34;98458.39;;;21.88;49.79
74466;BME280;62916;50.044;15.938;2023-05-15T00:38:05;98453.59;;;21.87;49.99
74466;BME280;62916;50.044;15.938;2023-05-15T00:40:36;98453.64;;;21.89;49.87
74466;BME280;62916;50.044;15.938;2023-05-15T00:43:08;98446.71;;;21.89;49.79
74466;BME280;62916;50.044;15.938;2023-05-15T00:45:42;98445.98;;;21.88;49.84
74466;BME280;62916;50.044;15.938;2023-05-15T00:48:14;98444.73;;;21.87;49.93
74466;BME280;62916;50.044;15.938;2023-05-15T00:50:45;98439.01;;;21.88;50.07
74466;BME280;62916;50.044;15.938;2023-05-15T00:53:16;98440.35;;;21.89;49.98
74466;BME280;62916;50.044;15.938;2023-05-15T00:55:47;98445.42;;;21.89;49.87
74466;BME280;62916;50.044;15.938;2023-05-15T00:58:20;98445.41;;;21.88;49.94
74466;BME280;62916;50.044;15.938;2023-05-15T01:00:52;98444.89;;;21.87;49.88
74466;BME280;62916;50.044;15.938;2023-05-15T01:03:23;98441.77;;;21.88;49.93
74466;BME280;62916;50.044;15.938;2023-05-15T01:05:55;98441.93;;;21.88;49.93
74466;BME280;62916;50.044;15.938;2023-05-15T01:08:34;98436.07;;;21.86;50.16
74466;BME280;62916;50.044;15.938;2023-05-15T01:11:08;98438.03;;;21.87;49.93
74466;BME280;62916;50.044;15.938;2023-05-15T01:13:40;98433.75;;;21.87;49.99
74466;BME280;62916;50.044;15.938;2023-05-15T01:16:11;98434.48;;;21.87;50.06
74466;BME280;62916;50.044;15.938;2023-05-15T01:18:42;98428.82;;;21.87;50.11
74466;BME280;62916;50.044;15.938;2023-05-15T01:21:41;98432.55;;;21.87;49.88
74466;BME280;62916;50.044;15.938;2023-05-15T01:24:32;98429.10;;;21.86;50.05
74466;BME280;62916;50.044;15.938;2023-05-15T01:27:15;98426.98;;;21.85;50.19
74466;BME280;62916;50.044;15.938;2023-05-15T01:29:54;98424.77;;;21.86;50.33
74466;BME280;62916;50.044;15.938;2023-05-15T01:32:33;98423.16;;;21.86;50.38
74466;BME280;62916;50.044;15.938;2023-05-15T01:35:10;98427.61;;;21.86;50.17
74466;BME280;62916;50.044;15.938;2023-05-15T01:37:47;98427.55;;;21.87;50.27
74466;BME280;62916;50.044;15.938;2023-05-15T01:40:21;98419.65;;;21.88;50.13
74466;BME280;62916;50.044;15.938;2023-05-15T01:42:54;98420.61;;;21.87;50.17
74466;BME280;62916;50.044;15.938;2023-05-15T01:45:27;98417.56;;;21.88;50.43
74466;BME280;62916;50.044;15.938;2023-05-15T01:48:00;98416.29;;;21.88;50.39
74466;BME280;62916;50.044;15.938;2023-05-15T01:50:33;98413.63;;;21.88;50.33
74466;BME280;62916;50.044;15.938;2023-05-15T01:53:05;98411.92;;;21.88;50.19
74466;BME280;62916;50.044;15.938;2023-05-15T01:55:38;98406.76;;;21.88;50.18
74466;BME280;62916;50.044;15.938;2023-05-15T01:58:09;98404.58;;;21.88;50.39
74466;BME280;62916;50.044;15.938;2023-05-15T02:00:41;98401.06;;;21.86;50.28
74466;BME280;62916;50.044;15.938;2023-05-15T02:03:13;98393.54;;;21.86;50.26
74466;BME280;62916;50.044;15.938;2023-05-15T02:05:45;98392.73;;;21.86;50.33
74466;BME280;62916;50.044;15.938;2023-05-15T02:08:16;98391.41;;;21.87;50.37
74466;BME280;62916;50.044;15.938;2023-05-15T02:10:48;98385.20;;;21.87;50.39
74466;BME280;62916;50.044;15.938;2023-05-15T02:13:20;98379.33;;;21.85;50.35
74466;BME280;62916;50.044;15.938;2023-05-15T02:15:51;98377.45;;;21.87;50.20
74466;BME280;62916;50.044;15.938;2023-05-15T02:18:22;98374.04;;;21.86;50.36
74466;BME280;62916;50.044;15.938;2023-05-15T02:20:53;98367.87;;;21.85;50.20
74466;BME280;62916;50.044;15.938;2023-05-15T02:23:24;98365.04;;;21.85;50.55
74466;BME280;62916;50.044;15.938;2023-05-15T02:26:05;98363.02;;;21.85;50.30
74466;BME280;62916;50.044;15.938;2023-05-15T02:28:44;98359.56;;;21.85;50.65
74466;BME280;62916;50.044;15.938;2023-05-15T02:31:21;98355.41;;;21.86;50.66
74466;BME280;62916;50.044;15.938;2023-05-15T02:34:01;98342.06;;;21.85;50.40
74466;BME280;62916;50.044;15.938;2023-05-15T02:36:34;98340.68;;;21.87;50.36
74466;BME280;62916;50.044;15.938;2023-05-15T02:39:11;98339.43;;;21.86;50.33
74466;BME280;62916;50.044;15.938;2023-05-15T02:41:43;98340.94;;;21.85;50.37
74466;BME280;62916;50.044;15.938;2023-05-15T02:44:15;98341.34;;;21.85;50.48
74466;BME280;62916;50.044;15.938;2023-05-15T02:46:47;98335.96;;;21.84;50.39
74466;BME280;62916;50.044;15.938;2023-05-15T02:49:21;98332.17;;;21.84;50.41
74466;BME280;62916;50.044;15.938;2023-05-15T02:51:52;98325.46;;;21.84;50.44
74466;BME280;62916;50.044;15.938;2023-05-15T02:54:25;98325.58;;;21.82;50.50
74466;BME280;62916;50.044;15.938;2023-05-15T02:56:56;98320.89;;;21.82;50.21
74466;BME280;62916;50.044;15.938;2023-05-15T02:59:27;98323.83;;;21.81;50.42
74466;BME280;62916;50.044;15.938;2023-05-15T03:01:58;98318.79;;;21.80;50.46
74466;BME280;62916;50.044;15.938;2023-05-15T03:04:29;98318.22;;;21.80;50.44
74466;BME280;62916;50.044;15.938;2023-05-15T03:07:00;98317.56;;;21.80;50.58
74466;BME280;62916;50.044;15.938;2023-05-15T03:09:30;98318.66;;;21.79;50.51
74466;BME280;62916;50.044;15.938;2023-05-15T03:12:01;98318.98;;;21.78;50.29
74466;BME280;62916;50.044;15.938;2023-05-15T03:14:32;98312.03;;;21.76;50.58
74466;BME280;62916;50.044;15.938;2023-05-15T03:17:03;98311.88;;;21.76;50.37
74466;BME280;62916;50.044;15.938;2023-05-15T03:19:34;98315.30;;;21.75;50.55
74466;BME280;62916;50.044;15.938;2023-05-15T03:22:05;98313.27;;;21.75;50.39
74466;BME280;62916;50.044;15.938;2023-05-15T03:24:36;98311.39;;;21.74;50.70
74466;BME280;62916;50.044;15.938;2023-05-15T03:27:07;98308.98;;;21.74;50.48
74466;BME280;62916;50.044;15.938;2023-05-15T03:29:38;98304.50;;;21.73;50.67
74466;BME280;62916;50.044;15.938;2023-05-15T03:32:09;98304.93;;;21.72;50.60
74466;BME280;62916;50.044;15.938;2023-05-15T03:34:40;98303.21;;;21.71;50.55
74466;BME280;62916;50.044;15.938;2023-05-15T03:37:11;98302.79;;;21.70;50.41
74466;BME280;62916;50.044;15.938;2023-05-15T03:39:42;98305.14;;;21.71;50.55
74466;BME280;62916;50.044;15.938;2023-05-15T03:42:12;98302.35;;;21.72;50.54
74466;BME280;62916;50.044;15.938;2023-05-15T03:44:43;98298.65;;;21.72;50.74
74466;BME280;62916;50.044;15.938;2023-05-15T03:47:14;98295.48;;;21.71;50.48
74466;BME280;62916;50.044;15.938;2023-05-15T03:49:46;98298.44;;;21.70;50.18
74466;BME280;62916;50.044;15.938;2023-05-15T03:52:17;98298.08;;;21.69;49.94
74466;BME280;62916;50.044;15.938;2023-05-15T03:54:48;98298.27;;;21.68;49.74
74466;BME280;62916;50.044;15.938;2023-05-15T03:57:19;98297.13;;;21.67;49.84
74466;BME280;62916;50.044;15.938;2023-05-15T03:59:50;98298.14;;;21.66;49.41
74466;BME280;62916;50.044;15.938;2023-05-15T04:02:21;98295.10;;;21.62;49.39
74466;BME280;62916;50.044;15.938;2023-05-15T04:04:51;98291.59;;;21.61;49.09
74466;BME280;62916;50.044;15.938;2023-05-15T04:07:22;98291.27;;;21.60;48.74
74466;BME280;62916;50.044;15.938;2023-05-15T04:09:53;98290.99;;;21.61;48.79
74466;BME280;62916;50.044;15.938;2023-05-15T04:12:24;98292.35;;;21.60;48.76
74466;BME280;62916;50.044;15.938;2023-05-15T04:15:11;98294.11;;;21.62;49.12
74466;BME280;62916;50.044;15.938;2023-05-15T04:17:43;98289.29;;;21.64;48.93
74466;BME280;62916;50.044;15.938;2023-05-15T04:20:15;98286.11;;;21.66;49.10
74466;BME280;62916;50.044;15.938;2023-05-15T04:22:46;98282.62;;;21.67;49.14
74466;BME280;62916;50.044;15.938;2023-05-15T04:25:17;98284.93;;;21.69;49.19
74466;BME280;62916;50.044;15.938;2023-05-15T04:27:48;98284.59;;;21.69;49.00
74466;BME280;62916;50.044;15.938;2023-05-15T04:30:19;98288.18;;;21.70;49.27
74466;BME280;62916;50.044;15.938;2023-05-15T04:32:51;98288.17;;;21.70;49.38
74466;BME280;62916;50.044;15.938;2023-05-15T04:35:22;98283.56;;;21.70;49.29
74466;BME280;62916;50.044;15.938;2023-05-15T04:37:53;98286.72;;;21.70;49.25
74466;BME280;62916;50.044;15.938;2023-05-15T04:40:24;98286.23;;;21.69;49.15
74466;BME280;62916;50.044;15.938;2023-05-15T04:42:55;98284.92;;;21.69;49.31
74466;BME280;62916;50.044;15.938;2023-05-15T04:45:26;98285.40;;;21.69;49.24
74466;BME280;62916;50.044;15.938;2023-05-15T04:47:57;98285.15;;;21.68;49.29
74466;BME280;62916;50.044;15.938;2023-05-15T04:50:28;98283.94;;;21.69;49.19
74466;BME280;62916;50.044;15.938;2023-05-15T04:52:59;98284.50;;;21.69;49.21
74466;BME280;62916;50.044;15.938;2023-05-15T04:55:30;98282.09;;;21.69;49.27
74466;BME280;62916;50.044;15.938;2023-05-15T04:58:02;98283.55;;;21.69;49.31
74466;BME280;62916;50.044;15.938;2023-05-15T05:00:33;98278.02;;;21.68;49.43
74466;BME280;62916;50.044;15.938;2023-05-15T05:03:03;98278.32;;;21.67;49.21
74466;BME280;62916;50.044;15.938;2023-05-15T05:05:34;98275.48;;;21.66;49.18
74466;BME280;62916;50.044;15.938;2023-05-15T05:08:05;98275.39;;;21.65;49.31
74466;BME280;62916;50.044;15.938;2023-05-15T05:10:36;98273.84;;;21.65;49.09
74466;BME280;62916;50.044;15.938;2023-05-15T05:13:07;98271.39;;;21.64;49.23
74466;BME280;62916;50.044;15.938;2023-05-15T05:15:38;98268.44;;;21.63;49.17
74466;BME280;62916;50.044;15.938;2023-05-15T05:18:09;98266.72;;;21.62;49.20
74466;BME280;62916;50.044;15.938;2023-05-15T05:20:39;98262.67;;;21.62;49.23
74466;BME280;62916;50.044;15.938;2023-05-15T05:23:10;98258.52;;;21.61;49.16
74466;BME280;62916;50.044;15.938;2023-05-15T05:25:43;98252.97;;;21.59;49.33
74466;BME280;62916;50.044;15.938;2023-05-15T05:28:14;98255.16;;;21.60;49.45
74466;BME280;62916;50.044;15.938;2023-05-15T05:30:46;98251.80;;;21.60;49.55
74466;BME280;62916;50.044;15.938;2023-05-15T05:33:17;98249.91;;;21.59;49.22
74466;BME280;62916;50.044;15.938;2023-05-15T05:35:48;98247.56;;;21.59;49.27
74466;BME280;62916;50.044;15.938;2023-05-15T05:38:20;98244.23;;;21.58;49.34
74466;BME280;62916;50.044;15.938;2023-05-15T05:40:50;98247.36;;;21.58;49.25
74466;BME280;62916;50.044;15.938;2023-05-15T05:43:21;98249.80;;;21.58;49.08
74466;BME280;62916;50.044;15.938;2023-05-15T05:45:52;98247.95;;;21.59;49.14
74466;BME280;62916;50.044;15.938;2023-05-15T05:48:23;98245.44;;;21.58;49.22
74466;BME280;62916;50.044;15.938;2023-05-15T05:50:55;98241.73;;;21.58;49.18
74466;BME280;62916;50.044;15.938;2023-05-15T05:53:26;98239.38;;;21.57;49.24
74466;BME280;62916;50.044;15.938;2023-05-15T05:55:57;98236.13;;;21.57;49.11
74466;BME280;62916;50.044;15.938;2023-05-15T05:58:28;98240.63;;;21.57;48.98
74466;BME280;62916;50.044;15.938;2023-05-15T06:00:59;98238.81;;;21.55;49.10
74466;BME280;62916;50.044;15.938;2023-05-15T06:03:30;98237.44;;;21.53;49.16
74466;BME280;62916;50.044;15.938;2023-05-15T06:06:02;98233.98;;;21.54;49.10
74466;BME280;62916;50.044;15.938;2023-05-15T06:08:33;98235.83;;;21.55;49.13
74466;BME280;62916;50.044;15.938;2023-05-15T06:11:04;98233.73;;;21.55;49.26
74466;BME280;62916;50.044;15.938;2023-05-15T06:13:35;98231.02;;;21.56;49.14
74466;BME280;62916;50.044;15.938;2023-05-15T06:16:07;98233.34;;;21.55;49.03
74466;BME280;62916;50.044;15.938;2023-05-15T06:18:38;98236.02;;;21.56;49.25
74466;BME280;62916;50.044;15.938;2023-05-15T06:21:08;98233.91;;;21.55;49.03
74466;BME280;62916;50.044;15.938;2023-05-15T06:23:39;98233.55;;;21.55;49.27
74466;BME280;62916;50.044;15.938;2023-05-15T06:26:10;98231.89;;;21.54;49.05
74466;BME280;62916;50.044;15.938;2023-05-15T06:28:41;98229.80;;;21.54;48.97
74466;BME280;62916;50.044;15.938;2023-05-15T06:31:12;98228.62;;;21.52;49.05
74466;BME280;62916;50.044;15.938;2023-05-15T06:33:43;98229.45;;;21.51;48.94
74466;BME280;62916;50.044;15.938;2023-05-15T06:36:14;98225.05;;;21.50;48.96
74466;BME280;62916;50.044;15.938;2023-05-15T06:38:45;98225.65;;;21.49;49.24
74466;BME280;62916;50.044;15.938;2023-05-15T06:41:16;98219.90;;;21.48;49.01
74466;BME280;62916;50.044;15.938;2023-05-15T06:43:47;98217.38;;;21.46;48.92
74466;BME280;62916;50.044;15.938;2023-05-15T06:46:18;98216.09;;;21.46;48.97
74466;BME280;62916;50.044;15.938;2023-05-15T06:48:49;98214.90;;;21.45;49.14
74466;BME280;62916;50.044;15.938;2023-05-15T06:51:20;98216.86;;;21.44;49.02
74466;BME280;62916;50.044;15.938;2023-05-15T06:53:51;98212.88;;;21.43;48.92
74466;BME280;62916;50.044;15.938;2023-05-15T06:56:22;98212.84;;;21.42;48.94
74466;BME280;62916;50.044;15.938;2023-05-15T06:58:52;98213.61;;;21.41;49.03
74466;BME280;62916;50.044;15.938;2023-05-15T07:01:23;98213.88;;;21.40;49.16
74466;BME280;62916;50.044;15.938;2023-05-15T07:03:54;98210.66;;;21.40;49.11
74466;BME280;62916;50.044;15.938;2023-05-15T07:06:25;98206.50;;;21.38;49.09
74466;BME280;62916;50.044;15.938;2023-05-15T07:08:56;98204.96;;;21.38;49.20
74466;BME280;62916;50.044;15.938;2023-05-15T07:11:27;98204.98;;;21.38;49.17
74466;BME280;62916;50.044;15.938;2023-05-15T07:13:58;98201.57;;;21.37;49.10
74466;BME280;62916;50.044;15.938;2023-05-15T07:16:30;98202.67;;;21.37;49.07
74466;BME280;62916;50.044;15.938;2023-05-15T07:19:01;98205.56;;;21.37;49.12
74466;BME280;62916;50.044;15.938;2023-05-15T07:21:32;98206.52;;;21.36;49.04
74466;BME280;62916;50.044;15.938;2023-05-15T07:24:03;98206.34;;;21.36;49.13
74466;BME280;62916;50.044;15.938;2023-05-15T07:26:34;98203.95;;;21.35;49.37
74466;BME280;62916;50.044;15.938;2023-05-15T07:29:25;98206.69;;;21.34;49.10
74466;BME280;62916;50.044;15.938;2023-05-15T07:31:56;98207.32;;;21.34;49.16
74466;BME280;62916;50.044;15.938;2023-05-15T07:34:27;98205.85;;;21.34;49.26
74466;BME280;62916;50.044;15.938;2023-05-15T07:36:58;98206.42;;;21.34;49.04
74466;BME280;62916;50.044;15.938;2023-05-15T07:39:28;98209.17;;;21.34;49.31
74466;BME280;62916;50.044;15.938;2023-05-15T07:41:59;98204.83;;;21.34;49.05
74466;BME280;62916;50.044;15.938;2023-05-15T07:44:30;98202.02;;;21.34;49.00
74466;BME280;62916;50.044;15.938;2023-05-15T07:47:01;98196.96;;;21.33;49.00
74466;BME280;62916;50.044;15.938;2023-05-15T07:49:32;98197.30;;;21.33;49.15
74466;BME280;62916;50.044;15.938;2023-05-15T07:52:03;98196.86;;;21.33;49.22
74466;BME280;62916;50.044;15.938;2023-05-15T07:54:34;98196.44;;;21.32;49.11
74466;BME280;62916;50.044;15.938;2023-05-15T07:57:05;98195.36;;;21.31;48.99
74466;BME280;62916;50.044;15.938;2023-05-15T07:59:36;98201.48;;;21.31;49.23
74466;BME280;62916;50.044;15.938;2023-05-15T08:02:07;98202.70;;;21.31;49.21
74466;BME280;62916;50.044;15.938;2023-05-15T08:04:38;98202.73;;;21.29;48.94
74466;BME280;62916;50.044;15.938;2023-05-15T08:07:09;98204.57;;;21.29;48.95
74466;BME280;62916;50.044;15.938;2023-05-15T08:09:40;98202.79;;;21.29;49.14
74466;BME280;62916;50.044;15.938;2023-05-15T08:12:18;98204.42;;;21.27;49.12
74466;BME280;62916;50.044;15.938;2023-05-15T08:14:51;98200.85;;;21.26;49.21
74466;BME280;62916;50.044;15.938;2023-05-15T08:17:23;98201.14;;;21.25;49.19
74466;BME280;62916;50.044;15.938;2023-05-15T08:19:54;98198.88;;;21.25;49.35
74466;BME280;62916;50.044;15.938;2023-05-15T08:22:25;98200.10;;;21.26;49.23
74466;BME280;62916;50.044;15.938;2023-05-15T08:24:59;98198.31;;;21.25;49.21
74466;BME280;62916;50.044;15.938;2023-05-15T08:27:32;98195.95;;;21.26;49.31
74466;BME280;62916;50.044;15.938;2023-05-15T08:30:03;98198.77;;;21.27;49.30
74466;BME280;62916;50.044;15.938;2023-05-15T08:32:34;98196.13;;;21.27;49.16
74466;BME280;62916;50.044;15.938;2023-05-15T08:35:07;98195.58;;;21.28;49.20
74466;BME280;62916;50.044;15.938;2023-05-15T08:37:37;98198.05;;;21.29;49.31
74466;BME280;62916;50.044;15.938;2023-05-15T08:40:10;98196.39;;;21.30;49.28
74466;BME280;62916;50.044;15.938;2023-05-15T08:42:44;98199.27;;;21.30;49.17
74466;BME280;62916;50.044;15.938;2023-05-15T08:45:17;98201.50;;;21.31;49.33
74466;BME280;62916;50.044;15.938;2023-05-15T08:47:48;98203.32;;;21.30;49.27
74466;BME280;62916;50.044;15.938;2023-05-15T08:50:19;98202.86;;;21.31;49.07
74466;BME280;62916;50.044;15.938;2023-05-15T08:52:50;98209.49;;;21.32;49.24
74466;BME280;62916;50.044;15.938;2023-05-15T08:55:26;98213.52;;;21.31;49.18
74466;BME280;62916;50.044;15.938;2023-05-15T08:57:59;98212.52;;;21.31;49.14
74466;BME280;62916;50.044;15.938;2023-05-15T09:00:30;98213.14;;;21.30;49.02
74466;BME280;62916;50.044;15.938;2023-05-15T09:03:01;98210.59;;;21.31;48.94
74466;BME280;62916;50.044;15.938;2023-05-15T09:05:32;98211.41;;;21.31;49.21
74466;BME280;62916;50.044;15.938;2023-05-15T09:08:07;98210.49;;;21.30;49.08
74466;BME280;62916;50.044;15.938;2023-05-15T09:10:39;98211.62;;;21.30;49.14
74466;BME280;62916;50.044;15.938;2023-05-15T09:13:11;98212.11;;;21.31;48.97
74466;BME280;62916;50.044;15.938;2023-05-15T09:15:42;98215.01;;;21.30;49.10
74466;BME280;62916;50.044;15.938;2023-05-15T09:18:15;98216.39;;;21.31;49.22
74466;BME280;62916;50.044;15.938;2023-05-15T09:20:46;98218.45;;;21.30;48.93
74466;BME280;62916;50.044;15.938;2023-05-15T09:23:25;98220.90;;;21.31;48.99
74466;BME280;62916;50.044;15.938;2023-05-15T09:25:57;98223.20;;;21.30;48.85
74466;BME280;62916;50.044;15.938;2023-05-15T09:28:30;98222.61;;;21.29;48.99
74466;BME280;62916;50.044;15.938;2023-05-15T09:31:03;98220.55;;;21.30;49.05
74466;BME280;62916;50.044;15.938;2023-05-15T09:33:37;98220.83;;;21.29;48.96
74466;BME280;62916;50.044;15.938;2023-05-15T09:36:10;98223.05;;;21.27;48.95
74466;BME280;62916;50.044;15.938;2023-05-15T09:38:42;98225.51;;;21.26;49.12
74466;BME280;62916;50.044;15.938;2023-05-15T09:41:24;98226.40;;;21.26;49.01
74466;BME280;62916;50.044;15.938;2023-05-15T09:43:56;98230.49;;;21.26;49.11
74466;BME280;62916;50.044;15.938;2023-05-15T09:46:27;98231.69;;;21.26;49.10
74466;BME280;62916;50.044;15.938;2023-05-15T09:48:59;98233.77;;;21.25;49.01
74466;BME280;62916;50.044;15.938;2023-05-15T09:51:30;98236.88;;;21.24;48.96
74466;BME280;62916;50.044;15.938;2023-05-15T09:54:01;98239.13;;;21.24;49.12
74466;BME280;62916;50.044;15.938;2023-05-15T09:56:33;98241.52;;;21.24;49.12
74466;BME280;62916;50.044;15.938;2023-05-15T09:59:04;98240.47;;;21.23;48.86
74466;BME280;62916;50.044;15.938;2023-05-15T10:01:36;98243.89;;;21.22;49.01
74466;BME280;62916;50.044;15.938;2023-05-15T10:04:07;98242.23;;;21.21;48.92
74466;BME280;62916;50.044;15.938;2023-05-15T10:06:38;98243.03;;;21.21;48.97
74466;BME280;62916;50.044;15.938;2023-05-15T10:09:12;98246.55;;;21.21;49.03
74466;BME280;62916;50.044;15.938;2023-05-15T10:11:47;98242.64;;;21.19;48.86
74466;BME280;62916;50.044;15.938;2023-05-15T10:14:23;98244.24;;;21.17;49.02
74466;BME280;62916;50.044;15.938;2023-05-15T10:16:55;98240.80;;;21.18;49.10
74466;BME280;62916;50.044;15.938;2023-05-15T10:19:28;98243.94;;;21.20;49.15
74466;BME280;62916;50.044;15.938;2023-05-15T10:22:00;98238.80;;;21.18;49.09
74466;BME280;62916;50.044;15.938;2023-05-15T10:24:32;98242.77;;;21.21;49.25
74466;BME280;62916;50.044;15.938;2023-05-15T10:27:04;98240.67;;;21.21;49.19
74466;BME280;62916;50.044;15.938;2023-05-15T10:29:36;98246.19;;;21.21;49.22
74466;BME280;62916;50.044;15.938;2023-05-15T10:32:07;98245.45;;;21.21;49.24
74466;BME280;62916;50.044;15.938;2023-05-15T10:34:39;98242.38;;;21.21;48.89
74466;BME280;62916;50.044;15.938;2023-05-15T10:37:10;98245.90;;;21.20;49.15
74466;BME280;62916;50.044;15.938;2023-05-15T10:39:42;98251.03;;;21.20;49.09
74466;BME280;62916;50.044;15.938;2023-05-15T10:42:14;98251.37;;;21.20;49.20
74466;BME280;62916;50.044;15.938;2023-05-15T10:44:47;98251.54;;;21.20;49.25
74466;BME280;62916;50.044;15.938;2023-05-15T10:47:18;98254.35;;;21.20;49.09
74466;BME280;62916;50.044;15.938;2023-05-15T10:49:50;98254.62;;;21.19;49.15
74466;BME280;62916;50.044;15.938;2023-05-15T10:52:22;98250.64;;;21.18;49.07
74466;BME280;62916;50.044;15.938;2023-05-15T10:54:54;98254.14;;;21.17;49.05
74466;BME280;62916;50.044;15.938;2023-05-15T10:57:25;98244.27;;;21.16;49.20
74466;BME280;62916;50.044;15.938;2023-05-15T10:59:58;98250.70;;;21.16;48.92
74466;BME280;62916;50.044;15.938;2023-05-15T11:02:31;98252.52;;;21.15;49.08
74466;BME280;62916;50.044;15.938;2023-05-15T11:05:09;98254.35;;;21.14;49.06
74466;BME280;62916;50.044;15.938;2023-05-15T11:07:40;98255.48;;;21.15;49.07
74466;BME280;62916;50.044;15.938;2023-05-15T11:10:37;98255.50;;;21.15;49.17
74466;BME280;62916;50.044;15.938;2023-05-15T11:13:09;98255.84;;;21.15;49.35
74466;BME280;62916;50.044;15.938;2023-05-15T11:15:44;98251.49;;;21.15;49.15
74466;BME280;62916;50.044;15.938;2023-05-15T11:18:16;98253.09;;;21.15;49.27
74466;BME280;62916;50.044;15.938;2023-05-15T11:21:06;98251.50;;;21.16;49.05
74466;BME280;62916;50.044;15.938;2023-05-15T11:23:41;98251.83;;;21.16;49.12
74466;BME280;62916;50.044;15.938;2023-05-15T11:26:13;98249.11;;;21.16;49.32
74466;BME280;62916;50.044;15.938;2023-05-15T11:28:44;98251.66;;;21.16;49.02
74466;BME280;62916;50.044;15.938;2023-05-15T11:31:16;98250.43;;;21.15;49.12
74466;BME280;62916;50.044;15.938;2023-05-15T11:34:05;98251.93;;;21.14;49.18
74466;BME280;62916;50.044;15.938;2023-05-15T11:36:37;98263.64;;;21.15;49.13
74466;BME280;62916;50.044;15.938;2023-05-15T11:39:11;98256.48;;;21.13;49.18
74466;BME280;62916;50.044;15.938;2023-05-15T11:41:43;98261.00;;;21.13;49.00
74466;BME280;62916;50.044;15.938;2023-05-15T11:44:20;98258.61;;;21.12;49.03
74466;BME280;62916;50.044;15.938;2023-05-15T11:46:51;98259.19;;;21.12;49.27
74466;BME280;62916;50.044;15.938;2023-05-15T11:49:23;98260.06;;;21.14;49.27
74466;BME280;62916;50.044;15.938;2023-05-15T11:51:54;98259.02;;;21.15;49.30
74466;BME280;62916;50.044;15.938;2023-05-15T11:54:26;98257.44;;;21.15;49.02
74466;BME280;62916;50.044;15.938;2023-05-15T11:56:58;98258.89;;;21.15;49.18
74466;BME280;62916;50.044;15.938;2023-05-15T11:59:30;98262.45;;;21.15;49.11
74466;BME280;62916;50.044;15.938;2023-05-15T12:02:06;98262.67;;;21.15;49.17
74466;BME280;62916;50.044;15.938;2023-05-15T12:04:37;98263.64;;;21.15;49.03
74466;BME280;62916;50.044;15.938;2023-05-15T12:07:08;98265.86;;;21.14;49.12
74466;BME280;62916;50.044;15.938;2023-05-15T12:09:41;98268.26;;;21.14;48.91
74466;BME280;62916;50.044;15.938;2023-05-15T12:12:14;98260.45;;;21.14;49.08
74466;BME280;62916;50.044;15.938;2023-05-15T12:14:46;98267.69;;;21.13;49.16
74466;BME280;62916;50.044;15.938;2023-05-15T12:17:18;98266.88;;;21.13;49.10
74466;BME280;62916;50.044;15.938;2023-05-15T12:19:50;98265.84;;;21.14;49.21
74466;BME280;62916;50.044;15.938;2023-05-15T12:22:22;98266.70;;;21.13;48.99
74466;BME280;62916;50.044;15.938;2023-05-15T12:24:53;98266.45;;;21.15;49.05
74466;BME280;62916;50.044;15.938;2023-05-15T12:27:28;98266.55;;;21.15;48.99
74466;BME280;62916;50.044;15.938;2023-05-15T12:29:59;98259.00;;;21.14;49.04
74466;BME280;62916;50.044;15.938;2023-05-15T12:32:32;98263.61;;;21.14;49.06
74466;BME280;62916;50.044;15.938;2023-05-15T12:35:04;98268.98;;;21.15;49.21
74466;BME280;62916;50.044;15.938;2023-05-15T12:37:35;98271.09;;;21.16;49.16
74466;BME280;62916;50.044;15.938;2023-05-15T12:40:08;98274.14;;;21.16;49.22
74466;BME280;62916;50.044;15.938;2023-05-15T12:42:42;98274.22;;;21.15;49.09
74466;BME280;62916;50.044;15.938;2023-05-15T12:45:14;98271.47;;;21.15;49.13
74466;BME280;62916;50.044;15.938;2023-05-15T12:47:48;98270.65;;;21.15;48.89
74466;BME280;62916;50.044;15.938;2023-05-15T12:50:20;98275.63;;;21.14;48.93
74466;BME280;62916;50.044;15.938;2023-05-15T12:52:56;98272.40;;;21.14;49.06
74466;BME280;62916;50.044;15.938;2023-05-15T12:55:30;98266.99;;;21.14;49.24
74466;BME280;62916;50.044;15.938;2023-05-15T12:58:03;98263.84;;;21.14;49.14
74466;BME280;62916;50.044;15.938;2023-05-15T13:00:36;98261.02;;;21.14;48.90
74466;BME280;62916;50.044;15.938;2023-05-15T13:03:09;98259.50;;;21.14;49.19
74466;BME280;62916;50.044;15.938;2023-05-15T13:05:42;98257.08;;;21.14;49.12
74466;BME280;62916;50.044;15.938;2023-05-15T13:08:17;98257.08;;;21.12;49.03
74466;BME280;62916;50.044;15.938;2023-05-15T13:10:56;98260.80;;;21.12;49.08
74466;BME280;62916;50.044;15.938;2023-05-15T13:13:43;98265.69;;;21.12;49.17
74466;BME280;62916;50.044;15.938;2023-05-15T13:16:22;98266.88;;;21.11;48.86